Time;durP1;ratioP1;P1;durP2;ratioP2;P2;SDS_P1;SDS_P2;PMS_P1;PMS_P2;Temp;Humidity;BMP_temperature;BMP_pressure;BME280_temperature;BME280_humidity;BME280_pressure;Samples;Min_cycle;Max_cycle;Signal;HPM_P1;HPM_P2
2023/01/19 00:00:16;;;;;;;44.97;24.15;;;-1.10;99.90;;;;;;2043657;29;20023;-73
2023/01/19 00:01:17;;;;;;;46.08;25.70;;;-1.20;99.90;;;;;;2045938;29;20312;-72
2023/01/19 00:02:18;;;;;;;48.03;25.83;;;-1.10;99.90;;;;;;2045560;29;20401;-73
2023/01/19 00:03:19;;;;;;;52.53;27.95;;;-1.20;99.90;;;;;;2045692;29;20063;-73
2023/01/19 00:04:19;;;;;;;47.58;27.48;;;-1.20;99.90;;;;;;2045572;29;20331;-73
2023/01/19 00:05:20;;;;;;;47.78;26.65;;;-1.20;99.90;;;;;;2035041;29;20036;-73
2023/01/19 00:06:21;;;;;;;49.35;27.27;;;-1.20;99.90;;;;;;2036917;29;20035;-73
2023/01/19 00:07:21;;;;;;;53.50;28.88;;;-1.20;99.90;;;;;;2045356;29;20091;-73
2023/01/19 00:08:22;;;;;;;52.10;28.17;;;-1.20;99.90;;;;;;2045473;29;20513;-72
2023/01/19 00:09:22;;;;;;;53.03;28.02;;;-1.20;99.90;;;;;;2042043;28;20038;-73
2023/01/19 00:10:23;;;;;;;55.80;30.55;;;-1.20;99.90;;;;;;2035598;29;20472;-73
2023/01/19 00:11:23;;;;;;;51.95;28.63;;;-1.20;99.90;;;;;;2045658;29;20054;-73
2023/01/19 00:12:25;;;;;;;54.55;29.83;;;-1.30;99.90;;;;;;2045159;29;20062;-74
2023/01/19 00:13:25;;;;;;;53.58;28.17;;;-1.30;99.90;;;;;;2045676;29;20039;-73
2023/01/19 00:14:26;;;;;;;50.58;27.95;;;-1.30;99.90;;;;;;2045606;29;20461;-73
2023/01/19 00:15:26;;;;;;;52.63;28.25;;;-1.30;99.90;;;;;;2043576;29;20035;-73
2023/01/19 00:16:27;;;;;;;49.47;25.75;;;-1.30;99.90;;;;;;2045547;28;20043;-71
2023/01/19 00:17:27;;;;;;;46.05;25.70;;;-1.30;99.90;;;;;;2045592;29;20102;-71
2023/01/19 00:18:28;;;;;;;47.00;25.90;;;-1.30;99.90;;;;;;2045645;29;20051;-72
2023/01/19 00:19:28;;;;;;;44.47;25.52;;;-1.30;99.90;;;;;;2044528;28;20038;-71
2023/01/19 00:20:31;;;;;;;46.58;25.40;;;-1.40;99.90;;;;;;2044065;28;20558;-72
2023/01/19 00:21:32;;;;;;;43.95;25.90;;;-1.30;99.90;;;;;;2045792;29;20051;-71
2023/01/19 00:22:32;;;;;;;44.70;25.60;;;-1.40;99.90;;;;;;2045563;29;20039;-71
2023/01/19 00:23:33;;;;;;;43.03;25.02;;;-1.40;99.90;;;;;;2045681;29;20035;-72
2023/01/19 00:24:33;;;;;;;45.70;25.33;;;-1.40;99.90;;;;;;2045538;28;20065;-72
2023/01/19 00:25:41;;;;;;;47.08;24.92;;;-1.40;99.90;;;;;;2044046;28;20028;-72
2023/01/19 00:26:41;;;;;;;46.85;25.38;;;-1.40;99.90;;;;;;2045507;29;20046;-71
2023/01/19 00:27:48;;;;;;;48.20;26.02;;;-1.40;99.90;;;;;;2045795;29;20208;-71
2023/01/19 00:28:49;;;;;;;45.15;26.45;;;-1.40;99.90;;;;;;2045876;29;20042;-73
2023/01/19 00:29:50;;;;;;;43.00;26.40;;;-1.40;99.90;;;;;;2045522;29;20035;-71
2023/01/19 00:30:51;;;;;;;50.42;26.73;;;-1.40;99.90;;;;;;2044144;29;20039;-71
2023/01/19 00:31:51;;;;;;;47.20;26.42;;;-1.40;99.90;;;;;;2050535;28;20030;-71
2023/01/19 00:32:52;;;;;;;46.33;26.17;;;-1.40;99.90;;;;;;2045566;28;20042;-71
2023/01/19 00:33:53;;;;;;;44.00;25.65;;;-1.40;99.90;;;;;;2045644;29;20119;-71
2023/01/19 00:34:53;;;;;;;45.67;25.40;;;-1.40;99.90;;;;;;2045323;28;20080;-71
2023/01/19 00:35:54;;;;;;;45.30;25.48;;;-1.40;99.90;;;;;;2043758;28;20033;-73
2023/01/19 00:36:54;;;;;;;46.00;26.15;;;-1.40;99.90;;;;;;2036766;29;20046;-71
2023/01/19 00:37:56;;;;;;;47.42;26.77;;;-1.40;99.90;;;;;;2037286;29;20119;-71
2023/01/19 00:38:57;;;;;;;45.75;25.45;;;-1.50;99.90;;;;;;2044938;28;20041;-71
2023/01/19 00:39:57;;;;;;;43.40;24.63;;;-1.50;99.90;;;;;;2042834;29;20054;-71
2023/01/19 00:40:58;;;;;;;45.60;25.70;;;-1.50;99.90;;;;;;2053598;28;20035;-71
2023/01/19 00:43:18;;;;;;;41.35;23.20;;;-1.60;99.90;;;;;;2039971;28;20043;-71
2023/01/19 00:44:18;;;;;;;41.35;24.20;;;-1.60;99.90;;;;;;2045824;28;20166;-71
2023/01/19 00:45:22;;;;;;;40.58;24.80;;;-1.60;99.90;;;;;;2030643;29;20036;-71
2023/01/19 00:46:26;;;;;;;47.03;25.40;;;-1.60;99.90;;;;;;2036972;29;20083;-71
2023/01/19 00:47:26;;;;;;;44.33;25.15;;;-1.60;99.90;;;;;;2036828;29;20036;-71
2023/01/19 00:48:27;;;;;;;47.95;26.58;;;-1.60;99.90;;;;;;2036942;29;20035;-71
2023/01/19 00:49:27;;;;;;;49.33;26.15;;;-1.60;99.90;;;;;;2045556;29;20082;-71
2023/01/19 00:50:29;;;;;;;48.65;25.58;;;-1.60;99.90;;;;;;2035475;29;20028;-71
2023/01/19 00:51:30;;;;;;;47.05;25.58;;;-1.60;99.90;;;;;;2037162;29;20223;-71
2023/01/19 00:52:31;;;;;;;45.25;25.58;;;-1.60;99.90;;;;;;2044948;29;20367;-71
2023/01/19 00:53:31;;;;;;;42.40;24.45;;;-1.70;99.90;;;;;;2045271;29;20494;-69
2023/01/19 00:54:32;;;;;;;44.72;23.50;;;-1.60;99.90;;;;;;2045467;29;20310;-68
2023/01/19 00:55:32;;;;;;;42.75;24.50;;;-1.60;99.90;;;;;;2043367;28;20106;-71
2023/01/19 00:56:34;;;;;;;44.28;24.15;;;-1.70;99.90;;;;;;2045324;29;20031;-69
2023/01/19 00:57:34;;;;;;;46.83;25.88;;;-1.70;99.90;;;;;;2045463;29;20054;-69
2023/01/19 00:58:35;;;;;;;42.05;24.88;;;-1.70;99.90;;;;;;2045518;29;20046;-70
2023/01/19 00:59:35;;;;;;;43.72;24.40;;;-1.60;99.90;;;;;;2045518;29;20090;-70
2023/01/19 01:00:36;;;;;;;47.40;25.15;;;-1.70;99.90;;;;;;2045662;28;20470;-70
2023/01/19 01:01:36;;;;;;;46.50;24.65;;;-1.70;99.90;;;;;;2045671;29;20305;-70
2023/01/19 01:02:38;;;;;;;43.60;24.35;;;-1.70;99.90;;;;;;2045235;29;20049;-70
2023/01/19 01:03:39;;;;;;;45.75;23.95;;;-1.70;99.90;;;;;;2045582;29;20031;-70
2023/01/19 01:04:39;;;;;;;42.30;24.02;;;-1.60;99.90;;;;;;2045123;29;20094;-70
2023/01/19 01:05:41;;;;;;;56.78;29.55;;;-1.70;99.90;;;;;;2043678;29;20466;-70
2023/01/19 01:06:41;;;;;;;52.60;28.33;;;-1.60;99.90;;;;;;2048819;28;20046;-70
2023/01/19 01:07:45;;;;;;;62.00;30.48;;;-1.60;99.90;;;;;;2045947;28;20274;-70
2023/01/19 01:08:46;;;;;;;55.50;28.55;;;-1.60;99.90;;;;;;2045309;29;20218;-70
2023/01/19 01:09:46;;;;;;;52.83;27.17;;;-1.60;99.90;;;;;;2045341;28;20037;-70
2023/01/19 01:10:47;;;;;;;48.53;26.05;;;-1.60;99.90;;;;;;2043915;29;20106;-70
2023/01/19 01:11:48;;;;;;;44.63;24.17;;;-1.60;99.90;;;;;;2045577;29;20047;-70
2023/01/19 01:12:49;;;;;;;42.95;24.42;;;-1.60;99.90;;;;;;2044876;29;20031;-70
2023/01/19 01:13:49;;;;;;;41.40;22.80;;;-1.60;99.90;;;;;;2045892;28;20123;-70
2023/01/19 01:14:50;;;;;;;39.72;22.27;;;-1.70;99.90;;;;;;2045399;29;20375;-70
2023/01/19 01:15:52;;;;;;;39.58;22.50;;;-1.60;99.90;;;;;;2043158;29;20039;-70
2023/01/19 01:16:53;;;;;;;40.92;22.27;;;-1.70;99.90;;;;;;2045308;29;20031;-70
2023/01/19 01:17:54;;;;;;;37.15;21.95;;;-1.70;99.90;;;;;;2045231;28;20090;-70
2023/01/19 01:18:55;;;;;;;38.67;21.73;;;-1.70;99.90;;;;;;2045582;29;20031;-70
2023/01/19 01:19:55;;;;;;;39.97;22.27;;;-1.70;99.90;;;;;;2045241;29;20451;-70
2023/01/19 01:21:03;;;;;;;40.78;22.85;;;-1.70;99.90;;;;;;2035837;29;20511;-70
2023/01/19 01:22:04;;;;;;;37.95;21.65;;;-1.70;99.90;;;;;;2043598;28;20035;-69
2023/01/19 01:23:04;;;;;;;40.75;22.80;;;-1.70;99.90;;;;;;2038561;29;20209;-70
2023/01/19 01:24:06;;;;;;;41.80;23.08;;;-1.70;99.90;;;;;;2038247;29;20183;-70
2023/01/19 01:25:07;;;;;;;48.17;24.25;;;-1.80;99.90;;;;;;2044920;28;20086;-69
2023/01/19 01:26:07;;;;;;;45.50;23.60;;;-1.80;99.90;;;;;;2046593;29;20114;-72
2023/01/19 01:27:08;;;;;;;43.42;23.33;;;-1.80;99.90;;;;;;2046786;29;20054;-71
2023/01/19 01:28:09;;;;;;;43.08;23.60;;;-1.80;99.90;;;;;;2046683;29;20038;-72
2023/01/19 01:29:09;;;;;;;45.25;24.08;;;-1.80;99.90;;;;;;2046991;29;20066;-72
2023/01/19 01:30:12;;;;;;;43.40;24.02;;;-1.80;99.90;;;;;;2044872;29;20015;-72
2023/01/19 01:31:12;;;;;;;46.88;24.23;;;-1.80;99.90;;;;;;2046998;28;20502;-71
2023/01/19 01:32:14;;;;;;;51.03;25.88;;;-1.80;99.90;;;;;;2046837;29;20043;-72
2023/01/19 01:33:14;;;;;;;48.92;26.02;;;-1.80;99.90;;;;;;2046813;29;20031;-69
2023/01/19 01:34:15;;;;;;;46.78;23.75;;;-1.80;99.90;;;;;;2048607;28;20027;-71
2023/01/19 01:35:16;;;;;;;52.72;25.70;;;-1.80;99.90;;;;;;2050937;28;20378;-69
2023/01/19 01:36:17;;;;;;;48.15;24.17;;;-1.90;99.90;;;;;;2046664;29;20027;-70
2023/01/19 01:37:18;;;;;;;48.60;24.70;;;-1.90;99.90;;;;;;2046632;29;20063;-69
2023/01/19 01:38:19;;;;;;;44.72;24.40;;;-1.90;99.90;;;;;;2046698;29;20094;-69
2023/01/19 01:39:21;;;;;;;41.85;23.50;;;-1.90;99.90;;;;;;2046812;29;20043;-69
2023/01/19 01:40:21;;;;;;;45.22;24.13;;;-1.90;99.90;;;;;;2036807;29;20047;-70
2023/01/19 01:41:22;;;;;;;41.85;23.63;;;-2.00;99.90;;;;;;2040623;28;20098;-71
2023/01/19 01:42:28;;;;;;;47.47;25.60;;;-2.00;99.90;;;;;;2046810;29;20178;-71
2023/01/19 01:43:50;;;;;;;45.53;25.25;;;-2.00;99.90;;;;;;2046481;29;20035;-72
2023/01/19 01:44:53;;;;;;;44.30;24.35;;;-2.00;99.90;;;;;;2042120;29;20102;-70
2023/01/19 01:45:54;;;;;;;45.10;25.17;;;-2.00;99.90;;;;;;2052721;28;20058;-71
2023/01/19 01:46:55;;;;;;;42.80;23.70;;;-2.00;99.90;;;;;;2052487;28;20027;-71
2023/01/19 01:48:21;;;;;;;41.03;22.95;;;-2.00;99.90;;;;;;2047014;28;20082;-71
2023/01/19 01:49:21;;;;;;;46.55;23.75;;;-2.10;99.90;;;;;;2045402;28;20066;-71
2023/01/19 01:50:25;;;;;;;44.97;24.92;;;-2.10;99.90;;;;;;2045807;28;20023;-71
2023/01/19 01:51:37;;;;;;;46.90;25.80;;;-2.10;99.90;;;;;;2049806;28;20043;-71
2023/01/19 01:52:51;;;;;;;43.42;24.92;;;-2.10;99.90;;;;;;2046657;28;20098;-70
2023/01/19 01:54:20;;;;;;;45.05;24.58;;;-2.10;99.90;;;;;;2046584;29;20035;-71
2023/01/19 01:55:23;;;;;;;47.30;24.58;;;-2.10;99.90;;;;;;2037860;28;20119;-71
2023/01/19 01:56:29;;;;;;;42.78;24.00;;;-2.10;99.90;;;;;;2046284;29;20054;-71
2023/01/19 01:57:30;;;;;;;42.42;24.52;;;-2.10;99.90;;;;;;2041163;29;20082;-70
2023/01/19 01:58:32;;;;;;;40.60;23.77;;;-2.10;99.90;;;;;;2050116;28;20629;-71
2023/01/19 01:59:37;;;;;;;42.85;24.20;;;-2.10;99.90;;;;;;2046962;28;20468;-70
2023/01/19 02:03:24;;;;;;;46.28;25.45;;;-2.20;99.90;;;;;;2046837;29;20051;-70
2023/01/19 02:04:25;;;;;;;44.67;24.98;;;-2.20;99.90;;;;;;2037666;29;20592;-71
2023/01/19 02:05:34;;;;;;;45.88;25.33;;;-2.20;99.90;;;;;;2037314;29;20043;-70
2023/01/19 02:13:31;;;;;;;44.53;24.23;;;-2.20;99.90;;;;;;2046874;29;20048;-71
2023/01/19 02:14:36;;;;;;;44.97;24.15;;;-2.20;99.90;;;;;;2046262;29;20483;-70
2023/01/19 02:15:36;;;;;;;45.83;24.65;;;-2.30;99.90;;;;;;2044963;29;20031;-70
2023/01/19 02:16:37;;;;;;;44.83;24.80;;;-2.30;99.90;;;;;;2046428;29;20039;-70
2023/01/19 02:17:38;;;;;;;45.10;24.67;;;-2.30;99.90;;;;;;2046877;28;20098;-70
2023/01/19 02:18:39;;;;;;;44.85;24.98;;;-2.30;99.90;;;;;;2046924;28;20564;-70
2023/01/19 02:19:42;;;;;;;42.33;23.70;;;-2.30;99.90;;;;;;2047269;28;20039;-71
2023/01/19 02:20:57;;;;;;;45.40;24.50;;;-2.30;99.90;;;;;;2050932;28;20031;-70
2023/01/19 02:22:14;;;;;;;46.55;24.92;;;-2.30;99.90;;;;;;2046554;29;20397;-70
2023/01/19 02:23:28;;;;;;;51.25;25.73;;;-2.30;99.90;;;;;;2044770;29;20035;-71
2023/01/19 02:24:29;;;;;;;49.88;26.05;;;-2.30;99.90;;;;;;2042335;29;20042;-70
2023/01/19 02:25:30;;;;;;;49.17;26.52;;;-2.30;99.90;;;;;;2044830;29;20112;-71
2023/01/19 02:26:38;;;;;;;47.67;26.15;;;-2.30;99.90;;;;;;2046425;29;20697;-71
2023/01/19 02:27:39;;;;;;;48.78;26.10;;;-2.40;99.90;;;;;;2029892;29;20127;-72
2023/01/19 02:28:43;;;;;;;48.80;26.98;;;-2.30;99.90;;;;;;2030072;29;20092;-70
2023/01/19 02:29:44;;;;;;;49.03;25.08;;;-2.30;99.90;;;;;;2046255;29;20672;-71
2023/01/19 02:30:44;;;;;;;44.15;25.25;;;-2.30;99.90;;;;;;2044352;28;20062;-70
2023/01/19 02:31:46;;;;;;;47.00;25.55;;;-2.30;99.90;;;;;;2049632;28;20054;-71
2023/01/19 02:32:47;;;;;;;46.22;24.17;;;-2.40;99.90;;;;;;2049581;28;20038;-70
2023/01/19 02:33:48;;;;;;;46.05;24.67;;;-2.40;99.90;;;;;;2046062;29;20428;-70
2023/01/19 02:34:49;;;;;;;47.05;24.77;;;-2.40;99.90;;;;;;2046274;29;20046;-71
2023/01/19 02:35:50;;;;;;;46.42;25.40;;;-2.40;99.90;;;;;;2045091;28;20123;-71
2023/01/19 02:36:59;;;;;;;49.38;26.50;;;-2.40;99.90;;;;;;2045998;29;20038;-71
2023/01/19 02:38:02;;;;;;;48.17;24.73;;;-2.40;99.90;;;;;;2044249;29;20111;-70
2023/01/19 02:39:04;;;;;;;45.72;25.63;;;-2.40;99.90;;;;;;2046277;29;20510;-71
2023/01/19 02:40:13;;;;;;;49.47;26.48;;;-2.40;99.90;;;;;;2045823;28;20023;-70
2023/01/19 02:41:19;;;;;;;45.15;25.10;;;-2.50;99.90;;;;;;2042871;28;20043;-70
2023/01/19 02:42:35;;;;;;;50.50;25.55;;;-2.50;99.90;;;;;;2038484;29;20071;-71
2023/01/19 02:43:36;;;;;;;51.65;25.80;;;-2.50;99.90;;;;;;2041790;29;20039;-71
2023/01/19 02:44:39;;;;;;;48.60;27.27;;;-2.50;99.90;;;;;;2041557;29;20049;-70
2023/01/19 02:45:41;;;;;;;54.78;28.05;;;-2.50;99.90;;;;;;2046066;29;20051;-70
2023/01/19 02:46:41;;;;;;;50.47;27.25;;;-2.50;99.90;;;;;;2044677;29;20031;-70
2023/01/19 02:47:45;;;;;;;58.90;29.60;;;-2.50;99.90;;;;;;2045642;29;20295;-70
2023/01/19 02:48:46;;;;;;;57.13;29.85;;;-2.50;99.90;;;;;;2046402;29;20461;-71
2023/01/19 02:49:57;;;;;;;56.75;29.20;;;-2.50;99.90;;;;;;2046043;29;20031;-70
2023/01/19 02:51:03;;;;;;;53.83;27.25;;;-2.50;99.90;;;;;;2046256;29;20031;-70
2023/01/19 02:52:03;;;;;;;47.70;27.02;;;-2.50;99.90;;;;;;2045882;28;20166;-70
2023/01/19 02:53:44;;;;;;;49.78;26.52;;;-2.50;99.90;;;;;;2046916;28;20497;-71
2023/01/19 02:54:59;;;;;;;48.85;25.60;;;-2.50;99.90;;;;;;2039507;29;20052;-70
2023/01/19 02:56:51;;;;;;;43.88;23.80;;;-2.60;99.90;;;;;;2046345;29;20031;-70
2023/01/19 02:58:10;;;;;;;45.88;24.38;;;-2.60;99.90;;;;;;2027249;29;20144;-70
2023/01/19 02:59:16;;;;;;;43.92;23.30;;;-2.60;99.90;;;;;;2037489;29;20048;-70
2023/01/19 03:00:35;;;;;;;47.22;24.73;;;-2.60;99.90;;;;;;2038204;29;20039;-71
2023/01/19 03:02:09;;;;;;;45.47;24.75;;;-2.60;99.90;;;;;;2048403;28;20042;-70
2023/01/19 03:03:34;;;;;;;49.75;26.75;;;-2.60;99.90;;;;;;2038350;29;20108;-72
2023/01/19 03:05:23;;;;;;;53.15;26.30;;;-2.60;99.90;;;;;;2045507;29;20039;-71
2023/01/19 03:06:38;;;;;;;50.20;26.88;;;-2.70;99.90;;;;;;2020233;29;20036;-70
2023/01/19 03:07:46;;;;;;;47.17;26.50;;;-2.70;99.90;;;;;;2021597;29;20055;-70
2023/01/19 03:09:01;;;;;;;46.47;26.10;;;-2.70;99.90;;;;;;2021323;29;20479;-70
2023/01/19 03:10:06;;;;;;;46.65;24.60;;;-2.70;99.90;;;;;;2021476;29;20028;-71
2023/01/19 03:11:09;;;;;;;46.08;24.95;;;-2.70;99.90;;;;;;2021424;29;20124;-70
2023/01/19 03:12:49;;;;;;;47.33;25.23;;;-2.70;99.90;;;;;;2031871;29;20071;-71
2023/01/19 03:14:01;;;;;;;45.13;25.20;;;-2.70;99.90;;;;;;2013789;29;20098;-70
2023/01/19 03:15:34;;;;;;;44.75;23.30;;;-2.80;99.90;;;;;;2020682;29;20135;-71
2023/01/19 03:16:41;;;;;;;42.60;23.98;;;-2.80;99.90;;;;;;2016809;29;20060;-70
2023/01/19 03:17:44;;;;;;;41.50;23.10;;;-2.80;99.90;;;;;;2021561;29;20036;-71
2023/01/19 03:18:49;;;;;;;42.95;24.42;;;-2.80;99.90;;;;;;2021259;29;20037;-71
2023/01/19 03:19:53;;;;;;;40.45;22.45;;;-2.80;99.90;;;;;;2035063;29;20047;-70
2023/01/19 03:20:58;;;;;;;41.15;22.25;;;-2.80;99.90;;;;;;2046006;29;20034;-71
2023/01/19 03:22:08;;;;;;;38.40;22.17;;;-2.90;99.90;;;;;;2049124;28;20047;-71
2023/01/19 03:23:11;;;;;;;40.75;22.13;;;-2.90;99.90;;;;;;2045340;28;20035;-71
2023/01/19 03:24:14;;;;;;;38.22;21.88;;;-2.90;99.90;;;;;;2045761;28;20035;-71
2023/01/19 03:25:16;;;;;;;39.13;22.70;;;-2.90;99.90;;;;;;2049572;28;20039;-70
2023/01/19 03:26:21;;;;;;;40.60;22.23;;;-2.90;99.90;;;;;;2035887;29;20043;-71
2023/01/19 03:27:25;;;;;;;41.42;22.90;;;-2.90;99.90;;;;;;2038967;28;20031;-70
2023/01/19 03:28:28;;;;;;;41.88;23.20;;;-2.90;99.90;;;;;;2047083;28;20517;-70
2023/01/19 03:29:33;;;;;;;37.70;20.92;;;-2.90;99.90;;;;;;2029785;29;20027;-71
2023/01/19 03:30:45;;;;;;;37.25;21.67;;;-3.00;99.90;;;;;;2030764;29;20044;-71
2023/01/19 03:31:49;;;;;;;38.28;21.88;;;-3.00;99.90;;;;;;2044288;28;20745;-70
2023/01/19 03:33:01;;;;;;;37.15;21.88;;;-3.00;99.90;;;;;;2045852;29;20046;-70
2023/01/19 03:34:08;;;;;;;38.80;21.80;;;-3.00;99.90;;;;;;2046243;28;20023;-71
2023/01/19 03:35:13;;;;;;;39.05;21.90;;;-3.00;99.90;;;;;;2045997;28;20039;-71
2023/01/19 03:36:24;;;;;;;37.63;21.88;;;-3.00;99.90;;;;;;2036197;29;20475;-70
2023/01/19 03:37:25;;;;;;;40.05;22.33;;;-3.10;99.90;;;;;;2040119;28;20047;-71
2023/01/19 03:38:27;;;;;;;43.50;22.70;;;-3.10;99.90;;;;;;2046129;28;20027;-71
2023/01/19 03:39:28;;;;;;;43.33;22.88;;;-3.10;99.90;;;;;;2037197;29;20036;-70
2023/01/19 03:40:32;;;;;;;44.13;22.88;;;-3.10;99.90;;;;;;2037179;29;20065;-70
2023/01/19 03:41:35;;;;;;;39.45;22.83;;;-3.10;99.90;;;;;;2043773;28;20388;-70
2023/01/19 03:42:37;;;;;;;38.45;22.27;;;-3.10;99.90;;;;;;2045892;29;20493;-71
2023/01/19 03:43:39;;;;;;;41.10;22.05;;;-3.10;99.90;;;;;;2045539;29;20117;-70
2023/01/19 03:44:43;;;;;;;41.13;22.33;;;-3.10;99.90;;;;;;2040157;28;20035;-71
2023/01/19 03:45:44;;;;;;;40.67;22.20;;;-3.10;99.90;;;;;;2045337;29;20050;-71
2023/01/19 03:46:46;;;;;;;41.92;22.05;;;-3.10;99.90;;;;;;2044453;29;20058;-71
2023/01/19 03:47:47;;;;;;;41.35;21.73;;;-3.20;99.90;;;;;;2045998;29;20035;-71
2023/01/19 03:48:49;;;;;;;39.13;21.52;;;-3.20;99.90;;;;;;2046113;28;20031;-71
2023/01/19 03:49:51;;;;;;;42.53;22.33;;;-3.20;99.90;;;;;;2029702;29;20024;-71
2023/01/19 03:50:52;;;;;;;38.53;22.20;;;-3.20;99.90;;;;;;2029509;29;20155;-71
2023/01/19 03:51:57;;;;;;;40.50;22.70;;;-3.20;99.90;;;;;;2044015;28;20031;-71
2023/01/19 03:53:05;;;;;;;40.92;22.77;;;-3.20;99.90;;;;;;2045643;29;20042;-70
2023/01/19 03:54:08;;;;;;;40.92;22.15;;;-3.20;99.90;;;;;;2030233;29;20132;-71
2023/01/19 03:55:09;;;;;;;39.97;22.73;;;-3.30;99.90;;;;;;2037406;29;20027;-71
2023/01/19 03:56:23;;;;;;;42.88;21.38;;;-3.30;99.90;;;;;;2045430;29;20494;-71
2023/01/19 03:57:23;;;;;;;41.10;22.75;;;-3.30;99.90;;;;;;2042057;29;20031;-71
2023/01/19 03:58:24;;;;;;;40.60;22.45;;;-3.30;99.90;;;;;;2046087;28;20041;-71
2023/01/19 03:59:24;;;;;;;39.38;21.73;;;-3.20;99.90;;;;;;2054053;28;20027;-71
2023/01/19 04:00:25;;;;;;;37.97;21.58;;;-3.30;99.90;;;;;;2046097;28;20023;-70
2023/01/19 04:01:26;;;;;;;39.13;21.27;;;-3.30;99.90;;;;;;2043820;28;20514;-71
2023/01/19 04:02:26;;;;;;;37.05;21.45;;;-3.20;99.90;;;;;;2045864;29;20039;-71
2023/01/19 04:03:27;;;;;;;36.10;20.42;;;-3.30;99.90;;;;;;2045892;28;20307;-71
2023/01/19 04:04:27;;;;;;;39.50;21.77;;;-3.30;99.90;;;;;;2045932;28;20035;-71
2023/01/19 04:05:28;;;;;;;36.58;20.58;;;-3.30;99.90;;;;;;2045496;28;20121;-71
2023/01/19 04:06:29;;;;;;;39.08;21.75;;;-3.30;99.90;;;;;;2044153;29;20027;-71
2023/01/19 04:07:30;;;;;;;38.08;21.13;;;-3.30;99.90;;;;;;2043292;29;20550;-71
2023/01/19 04:08:31;;;;;;;37.95;20.92;;;-3.30;99.90;;;;;;2039670;29;20075;-71
2023/01/19 04:09:31;;;;;;;38.30;21.15;;;-3.30;99.90;;;;;;2045640;29;20062;-71
2023/01/19 04:10:32;;;;;;;37.50;20.70;;;-3.30;99.90;;;;;;2045600;29;20042;-71
2023/01/19 04:11:33;;;;;;;37.28;21.10;;;-3.30;99.90;;;;;;2049067;28;20038;-71
2023/01/19 04:12:34;;;;;;;37.53;20.50;;;-3.30;99.90;;;;;;2037077;29;20039;-71
2023/01/19 04:13:35;;;;;;;35.55;20.63;;;-3.30;99.90;;;;;;2036932;29;20123;-70
2023/01/19 04:14:35;;;;;;;36.85;20.98;;;-3.30;99.90;;;;;;2045553;29;20058;-70
2023/01/19 04:15:36;;;;;;;36.83;19.95;;;-3.30;99.90;;;;;;2036541;29;20036;-70
2023/01/19 04:16:36;;;;;;;34.45;20.38;;;-3.30;99.90;;;;;;2035227;29;20507;-71
2023/01/19 04:17:38;;;;;;;36.00;20.35;;;-3.30;99.90;;;;;;2044874;29;20039;-70
2023/01/19 04:18:39;;;;;;;35.80;19.90;;;-3.30;99.90;;;;;;2044997;28;20039;-70
2023/01/19 04:19:40;;;;;;;32.67;18.70;;;-3.30;99.90;;;;;;2045716;29;20027;-70
2023/01/19 04:20:40;;;;;;;32.58;18.75;;;-3.30;99.90;;;;;;2044308;29;20074;-70
2023/01/19 04:21:41;;;;;;;33.78;18.60;;;-3.30;99.90;;;;;;2036277;29;20063;-70
2023/01/19 04:22:41;;;;;;;32.95;18.40;;;-3.30;99.90;;;;;;2029314;29;20797;-71
2023/01/19 04:23:43;;;;;;;30.92;18.05;;;-3.30;99.90;;;;;;2036557;29;20107;-70
2023/01/19 04:24:43;;;;;;;32.50;18.02;;;-3.30;99.90;;;;;;2045570;29;20499;-70
2023/01/19 04:25:44;;;;;;;32.33;18.15;;;-3.30;99.90;;;;;;2045698;29;20042;-70
2023/01/19 04:26:44;;;;;;;30.73;17.92;;;-3.30;99.90;;;;;;2044661;29;20035;-70
2023/01/19 04:27:45;;;;;;;33.15;18.40;;;-3.30;99.90;;;;;;2045601;29;20043;-70
2023/01/19 04:28:45;;;;;;;33.75;17.65;;;-3.30;99.90;;;;;;2048791;28;20031;-69
2023/01/19 04:29:46;;;;;;;32.03;18.27;;;-3.30;99.90;;;;;;2046091;28;20363;-71
2023/01/19 04:30:49;;;;;;;36.25;19.67;;;-3.30;99.90;;;;;;2045549;28;20039;-69
2023/01/19 04:31:50;;;;;;;36.22;19.60;;;-3.30;99.90;;;;;;2043870;28;20034;-71
2023/01/19 04:32:50;;;;;;;37.70;21.17;;;-3.30;99.90;;;;;;2045634;29;20028;-70
2023/01/19 04:33:51;;;;;;;39.42;20.95;;;-3.30;99.90;;;;;;2045279;29;20398;-70
2023/01/19 04:34:51;;;;;;;41.38;21.25;;;-3.30;99.90;;;;;;2044835;29;20110;-70
2023/01/19 04:35:52;;;;;;;44.17;21.90;;;-3.20;99.90;;;;;;2044386;29;20038;-69
2023/01/19 04:36:54;;;;;;;43.38;22.23;;;-3.20;99.90;;;;;;2043664;28;20350;-71
2023/01/19 04:37:55;;;;;;;47.60;22.75;;;-3.30;99.90;;;;;;2045690;29;20016;-70
2023/01/19 04:38:55;;;;;;;46.05;22.13;;;-3.30;99.90;;;;;;2045816;29;20063;-71
2023/01/19 04:39:56;;;;;;;46.85;22.70;;;-3.30;99.90;;;;;;2045528;29;20058;-70
2023/01/19 04:40:56;;;;;;;44.55;21.63;;;-3.30;99.90;;;;;;2037145;29;20039;-71
2023/01/19 04:41:57;;;;;;;45.65;21.92;;;-3.30;99.90;;;;;;2041144;29;20035;-72
2023/01/19 04:42:57;;;;;;;43.28;21.33;;;-3.30;99.90;;;;;;2050694;28;20203;-71
2023/01/19 04:43:58;;;;;;;48.35;20.98;;;-3.30;99.90;;;;;;2045460;29;20314;-72
2023/01/19 04:44:58;;;;;;;44.95;22.25;;;-3.30;99.90;;;;;;2040830;28;20063;-69
2023/01/19 04:45:59;;;;;;;47.22;22.33;;;-3.40;99.90;;;;;;2036655;29;20447;-70
2023/01/19 04:47:00;;;;;;;45.45;21.60;;;-3.40;99.90;;;;;;2035147;29;20064;-69
2023/01/19 04:48:03;;;;;;;44.58;21.42;;;-3.40;99.90;;;;;;2045886;29;20331;-70
2023/01/19 04:49:03;;;;;;;44.72;22.52;;;-3.40;99.90;;;;;;2045367;29;20031;-70
2023/01/19 04:50:05;;;;;;;46.03;22.13;;;-3.40;99.90;;;;;;2045380;28;20031;-70
2023/01/19 04:51:06;;;;;;;45.15;21.80;;;-3.40;99.90;;;;;;2048615;28;20027;-70
2023/01/19 04:52:06;;;;;;;48.33;22.38;;;-3.40;99.90;;;;;;2044690;28;20152;-70
2023/01/19 04:53:07;;;;;;;45.80;21.33;;;-3.40;99.90;;;;;;2039804;29;20039;-72
2023/01/19 04:54:08;;;;;;;46.13;21.65;;;-3.40;99.90;;;;;;2037071;29;20055;-74
2023/01/19 04:55:09;;;;;;;47.35;21.67;;;-3.40;99.90;;;;;;2048533;28;20161;-71
2023/01/19 04:56:09;;;;;;;44.90;22.27;;;-3.40;99.90;;;;;;2046612;28;20027;-72
2023/01/19 04:57:10;;;;;;;47.75;22.42;;;-3.40;99.90;;;;;;2045303;28;20039;-71
2023/01/19 04:58:11;;;;;;;43.78;21.80;;;-3.40;99.90;;;;;;2047700;28;20102;-73
2023/01/19 04:59:11;;;;;;;45.88;22.17;;;-3.40;99.90;;;;;;2046827;29;20035;-72
2023/01/19 05:00:12;;;;;;;45.10;21.75;;;-3.40;99.90;;;;;;2046676;29;20146;-71
2023/01/19 05:01:13;;;;;;;47.15;22.63;;;-3.40;99.90;;;;;;2045847;28;20047;-71
2023/01/19 05:02:13;;;;;;;48.40;22.80;;;-3.40;99.90;;;;;;2055389;28;20030;-72
2023/01/19 05:03:14;;;;;;;46.38;22.33;;;-3.40;99.90;;;;;;2047695;28;20265;-69
2023/01/19 05:04:14;;;;;;;48.35;22.80;;;-3.40;99.90;;;;;;2047405;29;20073;-71
2023/01/19 05:05:15;;;;;;;44.28;21.98;;;-3.40;99.90;;;;;;2047011;29;20261;-71
2023/01/19 05:06:16;;;;;;;41.13;20.48;;;-3.40;99.90;;;;;;2045625;29;20127;-71
2023/01/19 05:07:16;;;;;;;40.10;21.15;;;-3.40;99.90;;;;;;2038405;29;20036;-71
2023/01/19 05:08:17;;;;;;;39.88;20.35;;;-3.40;99.90;;;;;;2040731;29;20049;-72
2023/01/19 05:09:17;;;;;;;38.70;20.65;;;-3.40;99.90;;;;;;2038744;29;20119;-71
2023/01/19 05:10:18;;;;;;;36.65;19.25;;;-3.40;99.90;;;;;;2038621;29;20046;-72
2023/01/19 05:11:19;;;;;;;33.83;18.55;;;-3.40;99.90;;;;;;2045135;29;20031;-70
2023/01/19 05:12:19;;;;;;;33.85;18.95;;;-3.40;99.90;;;;;;2047383;29;20046;-72
2023/01/19 05:13:20;;;;;;;34.60;17.83;;;-3.40;99.90;;;;;;2046982;29;20114;-72
2023/01/19 05:14:21;;;;;;;39.63;19.55;;;-3.40;99.90;;;;;;2047219;29;20031;-72
2023/01/19 05:15:21;;;;;;;34.83;18.50;;;-3.40;99.90;;;;;;2046979;29;20039;-72
2023/01/19 05:16:22;;;;;;;33.85;18.33;;;-3.40;99.90;;;;;;2044763;29;20110;-71
2023/01/19 05:17:23;;;;;;;35.80;18.67;;;-3.50;99.90;;;;;;2046974;29;20098;-72
2023/01/19 05:18:23;;;;;;;34.22;18.25;;;-3.50;99.90;;;;;;2046899;29;20035;-70
2023/01/19 05:19:24;;;;;;;35.58;18.65;;;-3.50;99.90;;;;;;2046761;29;20035;-72
2023/01/19 05:20:24;;;;;;;33.42;17.73;;;-3.50;99.90;;;;;;2047063;29;20291;-72
2023/01/19 05:21:25;;;;;;;38.85;20.20;;;-3.50;99.90;;;;;;2047248;28;20038;-72
2023/01/19 05:22:25;;;;;;;40.05;20.38;;;-3.50;99.90;;;;;;2055121;28;20059;-72
2023/01/19 05:23:26;;;;;;;40.88;20.05;;;-3.40;99.90;;;;;;2047490;28;20171;-71
2023/01/19 05:24:26;;;;;;;43.92;22.60;;;-3.40;99.90;;;;;;2050545;28;20267;-71
2023/01/19 05:25:27;;;;;;;55.20;26.27;;;-3.40;99.90;;;;;;2038810;29;20039;-71
2023/01/19 05:26:28;;;;;;;61.90;29.55;;;-3.40;99.90;;;;;;2036592;29;20844;-71
2023/01/19 05:27:28;;;;;;;57.65;28.77;;;-3.40;99.90;;;;;;2043146;29;20106;-71
2023/01/19 05:28:30;;;;;;;65.78;29.80;;;-3.40;99.90;;;;;;2048567;28;20122;-71
2023/01/19 05:29:31;;;;;;;63.92;28.83;;;-3.40;99.90;;;;;;2047465;28;20031;-71
2023/01/19 05:30:32;;;;;;;62.53;29.00;;;-3.40;99.90;;;;;;2046677;29;20035;-71
2023/01/19 05:31:32;;;;;;;57.55;28.10;;;-3.40;99.90;;;;;;2048713;28;20524;-71
2023/01/19 05:32:33;;;;;;;55.88;27.00;;;-3.40;99.90;;;;;;2049167;28;20031;-72